sensor_id;sensor_type;location;lat;lon;timestamp;pressure;altitude;pressure_sealevel;temperature;humidity
15260;BME280;34462;51.368;12.364;2023-04-01T00:01:13;19429.75;;;-141.84;90.05
15260;BME280;34462;51.368;12.364;2023-04-01T00:03:43;19452.09;;;-141.84;90.03
15260;BME280;34462;51.368;12.364;2023-04-01T00:06:15;19437.88;;;-141.84;90.30
15260;BME280;34462;51.368;12.364;2023-04-01T00:08:44;19429.75;;;-141.84;90.00
15260;BME280;34462;51.368;12.364;2023-04-01T00:11:13;19423.66;;;-141.84;90.09
15260;BME280;34462;51.368;12.364;2023-04-01T00:13:42;19403.31;;;-141.84;90.54
15260;BME280;34462;51.368;12.364;2023-04-01T00:16:11;19423.66;;;-141.84;90.98
15260;BME280;34462;51.368;12.364;2023-04-01T00:18:51;19435.84;;;-141.84;91.60
15260;BME280;34462;51.368;12.364;2023-04-01T00:21:20;19417.56;;;-141.84;91.94
15260;BME280;34462;51.368;12.364;2023-04-01T00:23:49;19419.59;;;-141.84;92.41
15260;BME280;34462;51.368;12.364;2023-04-01T00:26:19;19443.97;;;-141.84;92.67
15260;BME280;34462;51.368;12.364;2023-04-01T00:28:49;19413.47;;;-141.84;92.61
15260;BME280;34462;51.368;12.364;2023-04-01T00:31:18;19395.19;;;-141.84;93.01
15260;BME280;34462;51.368;12.364;2023-04-01T00:33:46;19411.44;;;-141.84;93.25
15260;BME280;34462;51.368;12.364;2023-04-01T00:36:18;19433.81;;;-141.84;92.71
15260;BME280;34462;51.368;12.364;2023-04-01T00:38:48;19431.78;;;-141.84;92.20
15260;BME280;34462;51.368;12.364;2023-04-01T00:41:19;19419.59;;;-141.84;92.15
15260;BME280;34462;51.368;12.364;2023-04-01T00:43:50;19389.09;;;-141.84;92.08
15260;BME280;34462;51.368;12.364;2023-04-01T00:46:19;19403.31;;;-141.84;92.79
15260;BME280;34462;51.368;12.364;2023-04-01T00:48:51;19378.94;;;-141.84;93.26
15260;BME280;34462;51.368;12.364;2023-04-01T00:51:26;19383.00;;;-141.84;93.81
15260;BME280;34462;51.368;12.364;2023-04-01T00:53:59;19385.03;;;-141.84;94.00
15260;BME280;34462;51.368;12.364;2023-04-01T00:56:33;19362.69;;;-141.84;94.22
15260;BME280;34462;51.368;12.364;2023-04-01T00:59:07;19352.53;;;-141.84;94.74
15260;BME280;34462;51.368;12.364;2023-04-01T01:01:37;19346.44;;;-141.84;94.89
15260;BME280;34462;51.368;12.364;2023-04-01T01:04:06;19366.75;;;-141.84;94.63
15260;BME280;34462;51.368;12.364;2023-04-01T01:06:46;19378.94;;;-141.84;94.13
15260;BME280;34462;51.368;12.364;2023-04-01T01:09:31;19370.81;;;-141.84;93.97
15260;BME280;34462;51.368;12.364;2023-04-01T01:12:11;19358.63;;;-141.84;93.82
15260;BME280;34462;51.368;12.364;2023-04-01T01:14:56;19374.88;;;-141.84;93.70
15260;BME280;34462;51.368;12.364;2023-04-01T01:17:45;19401.28;;;-141.84;93.62
15260;BME280;34462;51.368;12.364;2023-04-01T01:24:05;19362.69;;;-141.84;94.00
15260;BME280;34462;51.368;12.364;2023-04-01T01:26:54;19368.78;;;-141.84;94.45
15260;BME280;34462;51.368;12.364;2023-04-01T01:29:44;19326.09;;;-141.84;94.69
15260;BME280;34462;51.368;12.364;2023-04-01T01:32:29;19356.59;;;-141.84;94.89
15260;BME280;34462;51.368;12.364;2023-04-01T01:35:15;19380.97;;;-141.84;94.78
15260;BME280;34462;51.368;12.364;2023-04-01T01:37:46;19348.47;;;-141.84;95.13
15260;BME280;34462;51.368;12.364;2023-04-01T01:40:17;19346.44;;;-141.84;95.04
15260;BME280;34462;51.368;12.364;2023-04-01T01:42:50;19340.31;;;-141.84;94.86
15260;BME280;34462;51.368;12.364;2023-04-01T01:45:23;19328.13;;;-141.84;94.85
15260;BME280;34462;51.368;12.364;2023-04-01T01:47:55;19370.81;;;-141.84;95.20
15260;BME280;34462;51.368;12.364;2023-04-01T01:50:27;19348.47;;;-141.84;94.81
15260;BME280;34462;51.368;12.364;2023-04-01T01:53:05;19338.28;;;-141.84;94.72
15260;BME280;34462;51.368;12.364;2023-04-01T01:55:36;19362.69;;;-141.84;94.88
15260;BME280;34462;51.368;12.364;2023-04-01T01:58:13;19378.94;;;-141.84;94.63
15260;BME280;34462;51.368;12.364;2023-04-01T02:00:46;19370.81;;;-141.84;94.26
15260;BME280;34462;51.368;12.364;2023-04-01T02:03:20;19364.72;;;-141.84;93.94
15260;BME280;34462;51.368;12.364;2023-04-01T02:05:54;19362.69;;;-141.84;92.65
15260;BME280;34462;51.368;12.364;2023-04-01T02:08:30;19399.25;;;-141.84;92.38
15260;BME280;34462;51.368;12.364;2023-04-01T02:11:05;19383.00;;;-141.84;91.87
15260;BME280;34462;51.368;12.364;2023-04-01T02:13:42;19385.03;;;-141.84;91.87
15260;BME280;34462;51.368;12.364;2023-04-01T02:16:19;19383.00;;;-141.84;92.20
15260;BME280;34462;51.368;12.364;2023-04-01T02:18:51;19421.63;;;-141.84;91.12
15260;BME280;34462;51.368;12.364;2023-04-01T02:21:27;19433.81;;;-141.84;90.19
15260;BME280;34462;51.368;12.364;2023-04-01T02:24:01;19425.69;;;-141.84;89.91
15260;BME280;34462;51.368;12.364;2023-04-01T02:26:30;19433.81;;;-141.84;90.48
15260;BME280;34462;51.368;12.364;2023-04-01T02:29:01;19413.47;;;-141.84;89.93
15260;BME280;34462;51.368;12.364;2023-04-01T02:31:31;19421.63;;;-141.84;89.87
15260;BME280;34462;51.368;12.364;2023-04-01T02:34:02;19411.44;;;-141.84;89.06
15260;BME280;34462;51.368;12.364;2023-04-01T02:36:32;19421.63;;;-141.84;88.96
15260;BME280;34462;51.368;12.364;2023-04-01T02:39:03;19409.41;;;-141.84;89.29
15260;BME280;34462;51.368;12.364;2023-04-01T02:41:39;19433.81;;;-141.84;88.95
15260;BME280;34462;51.368;12.364;2023-04-01T02:44:08;19439.91;;;-141.84;89.29
15260;BME280;34462;51.368;12.364;2023-04-01T02:46:37;19391.13;;;-141.84;89.65
15260;BME280;34462;51.368;12.364;2023-04-01T02:49:06;19425.69;;;-141.84;88.93
15260;BME280;34462;51.368;12.364;2023-04-01T02:51:35;19437.88;;;-141.84;88.02
15260;BME280;34462;51.368;12.364;2023-04-01T02:54:04;19437.88;;;-141.84;87.11
15260;BME280;34462;51.368;12.364;2023-04-01T02:56:32;19464.28;;;-141.84;87.08
15260;BME280;34462;51.368;12.364;2023-04-01T02:59:00;19454.13;;;-141.84;86.22
15260;BME280;34462;51.368;12.364;2023-04-01T03:01:28;19456.16;;;-141.84;86.56
15260;BME280;34462;51.368;12.364;2023-04-01T03:03:57;19460.22;;;-141.84;86.89
15260;BME280;34462;51.368;12.364;2023-04-01T03:06:25;19405.34;;;-141.84;87.54
15260;BME280;34462;51.368;12.364;2023-04-01T03:08:55;19431.78;;;-141.84;87.84
15260;BME280;34462;51.368;12.364;2023-04-01T03:11:23;19458.19;;;-141.84;87.45
15260;BME280;34462;51.368;12.364;2023-04-01T03:13:53;19415.50;;;-141.84;87.44
15260;BME280;34462;51.368;12.364;2023-04-01T03:16:21;19397.22;;;-141.84;87.83
15260;BME280;34462;51.368;12.364;2023-04-01T03:18:49;19405.34;;;-141.84;88.40
15260;BME280;34462;51.368;12.364;2023-04-01T03:21:21;19415.50;;;-141.84;88.62
15260;BME280;34462;51.368;12.364;2023-04-01T03:23:50;19405.34;;;-141.84;89.00
15260;BME280;34462;51.368;12.364;2023-04-01T03:26:20;19409.41;;;-141.84;89.02
15260;BME280;34462;51.368;12.364;2023-04-01T03:28:48;19411.44;;;-141.84;89.28
15260;BME280;34462;51.368;12.364;2023-04-01T03:31:16;19387.06;;;-141.84;89.32
15260;BME280;34462;51.368;12.364;2023-04-01T03:33:47;19407.38;;;-141.84;89.38
15260;BME280;34462;51.368;12.364;2023-04-01T03:36:15;19417.56;;;-141.84;89.21
15260;BME280;34462;51.368;12.364;2023-04-01T03:38:45;19378.94;;;-141.84;88.80
15260;BME280;34462;51.368;12.364;2023-04-01T03:41:15;19421.63;;;-141.84;88.98
15260;BME280;34462;51.368;12.364;2023-04-01T03:43:45;19439.91;;;-141.84;89.21
15260;BME280;34462;51.368;12.364;2023-04-01T03:46:18;19366.75;;;-141.84;89.50
15260;BME280;34462;51.368;12.364;2023-04-01T03:48:46;19413.47;;;-141.84;89.54
15260;BME280;34462;51.368;12.364;2023-04-01T03:51:14;19395.19;;;-141.84;89.77
15260;BME280;34462;51.368;12.364;2023-04-01T03:53:43;19393.16;;;-141.84;89.93
15260;BME280;34462;51.368;12.364;2023-04-01T03:56:11;19397.22;;;-141.84;90.29
15260;BME280;34462;51.368;12.364;2023-04-01T03:58:39;19380.97;;;-141.84;90.28
15260;BME280;34462;51.368;12.364;2023-04-01T04:01:17;19366.75;;;-141.84;90.59
15260;BME280;34462;51.368;12.364;2023-04-01T04:03:47;19383.00;;;-141.84;90.46
15260;BME280;34462;51.368;12.364;2023-04-01T04:06:18;19385.03;;;-141.84;90.61
15260;BME280;34462;51.368;12.364;2023-04-01T04:08:47;19374.88;;;-141.84;90.77
15260;BME280;34462;51.368;12.364;2023-04-01T04:11:16;19411.44;;;-141.84;89.87
15260;BME280;34462;51.368;12.364;2023-04-01T04:13:44;19385.03;;;-141.84;89.54
15260;BME280;34462;51.368;12.364;2023-04-01T04:16:16;19370.81;;;-141.84;90.00
15260;BME280;34462;51.368;12.364;2023-04-01T04:18:45;19362.69;;;-141.84;90.13
15260;BME280;34462;51.368;12.364;2023-04-01T04:21:14;19393.16;;;-141.84;89.70
15260;BME280;34462;51.368;12.364;2023-04-01T04:23:43;19395.19;;;-141.84;89.09
15260;BME280;34462;51.368;12.364;2023-04-01T04:26:14;19413.47;;;-141.84;89.22
15260;BME280;34462;51.368;12.364;2023-04-01T04:28:42;19368.78;;;-141.84;90.18
15260;BME280;34462;51.368;12.364;2023-04-01T04:31:11;19362.69;;;-141.84;90.81
15260;BME280;34462;51.368;12.364;2023-04-01T04:33:40;19421.63;;;-141.84;90.18
15260;BME280;34462;51.368;12.364;2023-04-01T04:36:08;19370.81;;;-141.84;90.52
15260;BME280;34462;51.368;12.364;2023-04-01T04:38:37;19354.56;;;-141.84;90.88
15260;BME280;34462;51.368;12.364;2023-04-01T04:41:09;19376.91;;;-141.84;91.19
15260;BME280;34462;51.368;12.364;2023-04-01T04:43:39;19334.22;;;-141.84;91.56
15260;BME280;34462;51.368;12.364;2023-04-01T04:46:07;19352.53;;;-141.84;91.80
15260;BME280;34462;51.368;12.364;2023-04-01T04:48:36;19342.34;;;-141.84;92.03
15260;BME280;34462;51.368;12.364;2023-04-01T04:51:06;19338.28;;;-141.84;92.16
15260;BME280;34462;51.368;12.364;2023-04-01T04:53:34;19364.72;;;-141.84;92.10
15260;BME280;34462;51.368;12.364;2023-04-01T04:56:02;19387.06;;;-141.84;91.18
15260;BME280;34462;51.368;12.364;2023-04-01T04:58:30;19380.97;;;-141.84;90.52
15260;BME280;34462;51.368;12.364;2023-04-01T05:00:58;19395.19;;;-141.84;90.51
15260;BME280;34462;51.368;12.364;2023-04-01T05:03:27;19387.06;;;-141.84;90.25
15260;BME280;34462;51.368;12.364;2023-04-01T05:05:55;19407.38;;;-141.84;90.33
15260;BME280;34462;51.368;12.364;2023-04-01T05:08:24;19399.25;;;-141.84;90.59
15260;BME280;34462;51.368;12.364;2023-04-01T05:10:53;19389.09;;;-141.84;90.44
15260;BME280;34462;51.368;12.364;2023-04-01T05:13:22;19374.88;;;-141.84;90.41
15260;BME280;34462;51.368;12.364;2023-04-01T05:15:50;19376.91;;;-141.84;90.67
15260;BME280;34462;51.368;12.364;2023-04-01T05:18:18;19383.00;;;-141.84;90.23
15260;BME280;34462;51.368;12.364;2023-04-01T05:20:47;19358.63;;;-141.84;90.07
15260;BME280;34462;51.368;12.364;2023-04-01T05:23:16;19380.97;;;-141.84;90.37
15260;BME280;34462;51.368;12.364;2023-04-01T05:25:46;19374.88;;;-141.84;90.74
15260;BME280;34462;51.368;12.364;2023-04-01T05:28:14;19370.81;;;-141.84;90.42
15260;BME280;34462;51.368;12.364;2023-04-01T05:30:43;19437.88;;;-141.84;90.07
15260;BME280;34462;51.368;12.364;2023-04-01T05:33:13;19405.34;;;-141.84;89.41
15260;BME280;34462;51.368;12.364;2023-04-01T05:35:41;19401.28;;;-141.84;89.02
15260;BME280;34462;51.368;12.364;2023-04-01T05:38:09;19395.19;;;-141.84;89.02
15260;BME280;34462;51.368;12.364;2023-04-01T05:40:37;19446.00;;;-141.84;87.73
15260;BME280;34462;51.368;12.364;2023-04-01T05:43:07;19468.34;;;-141.84;85.75
15260;BME280;34462;51.368;12.364;2023-04-01T05:45:35;19443.97;;;-141.84;84.60
15260;BME280;34462;51.368;12.364;2023-04-01T05:48:04;19456.16;;;-141.84;85.54
15260;BME280;34462;51.368;12.364;2023-04-01T05:50:33;19439.91;;;-141.84;85.42
15260;BME280;34462;51.368;12.364;2023-04-01T05:53:01;19456.16;;;-141.84;85.77
15260;BME280;34462;51.368;12.364;2023-04-01T05:55:29;19448.03;;;-141.84;86.11
15260;BME280;34462;51.368;12.364;2023-04-01T05:57:57;19458.19;;;-141.84;84.69
15260;BME280;34462;51.368;12.364;2023-04-01T06:00:27;19478.50;;;-141.84;84.85
15260;BME280;34462;51.368;12.364;2023-04-01T06:02:58;19427.72;;;-141.84;85.38
15260;BME280;34462;51.368;12.364;2023-04-01T06:05:29;19498.84;;;-141.84;84.60
15260;BME280;34462;51.368;12.364;2023-04-01T06:08:05;19484.59;;;-141.84;84.27
15260;BME280;34462;51.368;12.364;2023-04-01T06:10:49;19474.44;;;-141.84;84.51
15260;BME280;34462;51.368;12.364;2023-04-01T06:13:38;19488.69;;;-141.84;84.55
15260;BME280;34462;51.368;12.364;2023-04-01T06:16:22;19464.28;;;-141.84;85.11
15260;BME280;34462;51.368;12.364;2023-04-01T06:19:08;19456.16;;;-141.84;85.17
15260;BME280;34462;51.368;12.364;2023-04-01T06:25:29;19502.91;;;-141.84;84.55
15260;BME280;34462;51.368;12.364;2023-04-01T06:28:40;19509.00;;;-141.84;83.92
15260;BME280;34462;51.368;12.364;2023-04-01T06:31:32;19478.50;;;-141.84;84.16
15260;BME280;34462;51.368;12.364;2023-04-01T06:34:25;19500.88;;;-141.84;83.55
15260;BME280;34462;51.368;12.364;2023-04-01T06:37:20;19506.97;;;-141.84;82.46
15260;BME280;34462;51.368;12.364;2023-04-01T06:40:12;19537.44;;;-141.84;81.67
15260;BME280;34462;51.368;12.364;2023-04-01T06:43:05;19578.09;;;-141.84;80.16
15260;BME280;34462;51.368;12.364;2023-04-01T06:45:45;19567.94;;;-141.84;80.57
15260;BME280;34462;51.368;12.364;2023-04-01T06:48:41;19602.47;;;-141.84;81.07
15260;BME280;34462;51.368;12.364;2023-04-01T06:51:27;19600.44;;;-141.84;80.88
15260;BME280;34462;51.368;12.364;2023-04-01T06:54:07;19600.44;;;-141.84;80.18
15260;BME280;34462;51.368;12.364;2023-04-01T06:56:41;19632.97;;;-141.84;79.11
15260;BME280;34462;51.368;12.364;2023-04-01T06:59:15;19588.25;;;-141.84;80.13
15260;BME280;34462;51.368;12.364;2023-04-01T07:01:49;19616.72;;;-141.84;78.89
15260;BME280;34462;51.368;12.364;2023-04-01T07:04:25;19659.38;;;-141.84;78.13
15260;BME280;34462;51.368;12.364;2023-04-01T07:06:59;19661.41;;;-141.84;77.48
15260;BME280;34462;51.368;12.364;2023-04-01T07:09:38;19671.56;;;-141.84;77.92
15260;BME280;34462;51.368;12.364;2023-04-01T07:12:19;19677.66;;;-141.84;77.90
15260;BME280;34462;51.368;12.364;2023-04-01T07:14:54;19663.44;;;-141.84;77.98
15260;BME280;34462;51.368;12.364;2023-04-01T07:17:29;19647.19;;;-141.84;78.18
15260;BME280;34462;51.368;12.364;2023-04-01T07:20:09;19693.94;;;-141.84;77.51
15260;BME280;34462;51.368;12.364;2023-04-01T07:22:43;19734.56;;;-141.84;75.43
15260;BME280;34462;51.368;12.364;2023-04-01T07:25:15;19789.44;;;-141.84;73.26
15260;BME280;34462;51.368;12.364;2023-04-01T07:27:45;19801.66;;;-141.84;71.31
15260;BME280;34462;51.368;12.364;2023-04-01T07:30:17;19830.09;;;-141.84;72.41
15260;BME280;34462;51.368;12.364;2023-04-01T07:32:52;19832.13;;;-141.84;72.12
15260;BME280;34462;51.368;12.364;2023-04-01T07:35:34;19834.16;;;-141.84;70.15
15260;BME280;34462;51.368;12.364;2023-04-01T07:38:20;19799.63;;;-141.84;70.24
15260;BME280;34462;51.368;12.364;2023-04-01T07:41:03;19807.75;;;-141.84;70.59
15260;BME280;34462;51.368;12.364;2023-04-01T07:43:59;19785.38;;;-141.84;71.18
15260;BME280;34462;51.368;12.364;2023-04-01T07:46:55;19787.41;;;-141.84;71.38
15260;BME280;34462;51.368;12.364;2023-04-01T07:49:36;19807.75;;;-141.84;69.99
15260;BME280;34462;51.368;12.364;2023-04-01T07:52:20;19856.53;;;-141.84;70.31
15260;BME280;34462;51.368;12.364;2023-04-01T07:55:00;19840.25;;;-141.84;69.69
15260;BME280;34462;51.368;12.364;2023-04-01T07:57:37;19880.91;;;-141.84;69.64
15260;BME280;34462;51.368;12.364;2023-04-01T08:00:16;19866.69;;;-141.84;68.89
15260;BME280;34462;51.368;12.364;2023-04-01T08:03:10;19850.41;;;-141.84;68.72
15260;BME280;34462;51.368;12.364;2023-04-01T08:05:55;19828.06;;;-141.84;69.17
15260;BME280;34462;51.368;12.364;2023-04-01T08:08:38;19838.22;;;-141.84;68.26
15260;BME280;34462;51.368;12.364;2023-04-01T08:11:22;19797.59;;;-141.84;69.46
15260;BME280;34462;51.368;12.364;2023-04-01T08:14:05;19805.72;;;-141.84;69.04
15260;BME280;34462;51.368;12.364;2023-04-01T08:16:45;19775.22;;;-141.84;68.98
15260;BME280;34462;51.368;12.364;2023-04-01T08:19:30;19797.59;;;-141.84;69.78
15260;BME280;34462;51.368;12.364;2023-04-01T08:22:09;19868.72;;;-141.84;68.49
15260;BME280;34462;51.368;12.364;2023-04-01T08:24:42;19824.00;;;-141.84;68.41
15260;BME280;34462;51.368;12.364;2023-04-01T08:27:20;19868.72;;;-141.84;68.22
15260;BME280;34462;51.368;12.364;2023-04-01T08:29:55;19917.50;;;-141.84;65.16
15260;BME280;34462;51.368;12.364;2023-04-01T08:32:28;19929.69;;;-141.84;66.10
15260;BME280;34462;51.368;12.364;2023-04-01T08:35:08;19962.19;;;-141.84;65.25
15260;BME280;34462;51.368;12.364;2023-04-01T08:37:41;19978.47;;;-141.84;64.78
15260;BME280;34462;51.368;12.364;2023-04-01T08:40:37;19990.66;;;-141.84;65.50
15260;BME280;34462;51.368;12.364;2023-04-01T08:43:13;19966.28;;;-141.84;64.32
15260;BME280;34462;51.368;12.364;2023-04-01T08:46:12;20019.13;;;-141.84;65.06
15260;BME280;34462;51.368;12.364;2023-04-01T08:49:05;19982.53;;;-141.84;64.46
15260;BME280;34462;51.368;12.364;2023-04-01T08:55:30;19992.69;;;-141.84;62.51
15260;BME280;34462;51.368;12.364;2023-04-01T08:58:30;19939.84;;;-141.84;64.69
15260;BME280;34462;51.368;12.364;2023-04-01T09:01:19;19952.03;;;-141.84;65.16
15260;BME280;34462;51.368;12.364;2023-04-01T09:04:32;20015.03;;;-141.84;64.41
15260;BME280;34462;51.368;12.364;2023-04-01T09:07:27;19976.44;;;-141.84;64.11
15260;BME280;34462;51.368;12.364;2023-04-01T09:10:36;20015.03;;;-141.84;64.54
15260;BME280;34462;51.368;12.364;2023-04-01T09:13:23;20057.72;;;-141.84;64.38
15260;BME280;34462;51.368;12.364;2023-04-01T09:16:23;20010.97;;;-141.84;64.95
15260;BME280;34462;51.368;12.364;2023-04-01T09:19:24;20002.84;;;-141.84;64.69
15260;BME280;34462;51.368;12.364;2023-04-01T09:22:13;20047.56;;;-141.84;64.66
15260;BME280;34462;51.368;12.364;2023-04-01T09:25:24;20082.13;;;-141.84;62.98
15260;BME280;34462;51.368;12.364;2023-04-01T09:28:10;20143.09;;;-141.84;60.97
15260;BME280;34462;51.368;12.364;2023-04-01T09:31:08;20134.97;;;-141.84;61.61
15260;BME280;34462;51.368;12.364;2023-04-01T09:34:25;20110.56;;;-141.84;62.97
15260;BME280;34462;51.368;12.364;2023-04-01T09:37:17;20080.09;;;-141.84;63.56
15260;BME280;34462;51.368;12.364;2023-04-01T09:40:08;20098.38;;;-141.84;61.80
15260;BME280;34462;51.368;12.364;2023-04-01T09:43:15;20043.50;;;-141.84;62.45
15260;BME280;34462;51.368;12.364;2023-04-01T09:45:55;20019.13;;;-141.84;62.46
15260;BME280;34462;51.368;12.364;2023-04-01T09:49:00;20067.88;;;-141.84;61.62
15260;BME280;34462;51.368;12.364;2023-04-01T09:51:40;20063.81;;;-141.84;62.93
15260;BME280;34462;51.368;12.364;2023-04-01T09:54:27;20047.56;;;-141.84;63.50
15260;BME280;34462;51.368;12.364;2023-04-01T10:04:23;20094.31;;;-141.84;61.71
15260;BME280;34462;51.368;12.364;2023-04-01T10:08:00;20037.41;;;-141.84;63.29
15260;BME280;34462;51.368;12.364;2023-04-01T10:11:13;20021.16;;;-141.84;63.58
15260;BME280;34462;51.368;12.364;2023-04-01T10:17:32;19966.28;;;-141.84;64.85
15260;BME280;34462;51.368;12.364;2023-04-01T10:23:30;19958.13;;;-141.84;65.88
15260;BME280;34462;51.368;12.364;2023-04-01T10:26:38;19909.34;;;-141.84;66.66
15260;BME280;34462;51.368;12.364;2023-04-01T10:29:36;19876.84;;;-141.84;67.94
15260;BME280;34462;51.368;12.364;2023-04-01T10:39:03;19824.00;;;-141.84;69.76
15260;BME280;34462;51.368;12.364;2023-04-01T10:45:46;19836.19;;;-141.84;70.36
15260;BME280;34462;51.368;12.364;2023-04-01T10:49:06;19832.13;;;-141.84;70.66
15260;BME280;34462;51.368;12.364;2023-04-01T10:52:27;19842.28;;;-141.84;69.04
15260;BME280;34462;51.368;12.364;2023-04-01T10:55:35;19838.22;;;-141.84;69.66
15260;BME280;34462;51.368;12.364;2023-04-01T11:02:27;19834.16;;;-141.84;70.67
15260;BME280;34462;51.368;12.364;2023-04-01T11:06:03;19805.72;;;-141.84;70.47
15260;BME280;34462;51.368;12.364;2023-04-01T11:09:19;19830.09;;;-141.84;69.98
15260;BME280;34462;51.368;12.364;2023-04-01T11:12:31;19836.19;;;-141.84;69.48
15260;BME280;34462;51.368;12.364;2023-04-01T11:15:31;19870.75;;;-141.84;69.26
15260;BME280;34462;51.368;12.364;2023-04-01T11:22:00;19880.91;;;-141.84;68.85
15260;BME280;34462;51.368;12.364;2023-04-01T11:25:14;19919.53;;;-141.84;68.88
15260;BME280;34462;51.368;12.364;2023-04-01T11:31:32;19931.72;;;-141.84;67.44
15260;BME280;34462;51.368;12.364;2023-04-01T11:34:19;19919.53;;;-141.84;67.96
15260;BME280;34462;51.368;12.364;2023-04-01T11:37:03;19897.16;;;-141.84;67.01
15260;BME280;34462;51.368;12.364;2023-04-01T11:39:46;19921.56;;;-141.84;67.00
15260;BME280;34462;51.368;12.364;2023-04-01T11:42:38;19950.00;;;-141.84;68.57
15260;BME280;34462;51.368;12.364;2023-04-01T11:45:23;19990.66;;;-141.84;68.50
15260;BME280;34462;51.368;12.364;2023-04-01T11:48:19;20029.28;;;-141.84;67.30
15260;BME280;34462;51.368;12.364;2023-04-01T11:51:21;20130.91;;;-141.84;63.41
15260;BME280;34462;51.368;12.364;2023-04-01T11:54:06;20171.56;;;-141.84;61.37
15260;BME280;34462;51.368;12.364;2023-04-01T11:57:00;20218.31;;;-141.84;61.06
15260;BME280;34462;51.368;12.364;2023-04-01T12:02:48;20094.31;;;-141.84;64.37
15260;BME280;34462;51.368;12.364;2023-04-01T12:05:38;20041.47;;;-141.84;66.76
15260;BME280;34462;51.368;12.364;2023-04-01T12:08:35;19968.31;;;-141.84;69.25
15260;BME280;34462;51.368;12.364;2023-04-01T12:11:17;19937.81;;;-141.84;70.14
15260;BME280;34462;51.368;12.364;2023-04-01T12:13:57;19925.63;;;-141.84;70.85
15260;BME280;34462;51.368;12.364;2023-04-01T12:16:46;19933.75;;;-141.84;71.35
15260;BME280;34462;51.368;12.364;2023-04-01T12:19:31;19929.69;;;-141.84;69.65
15260;BME280;34462;51.368;12.364;2023-04-01T12:22:23;19931.72;;;-141.84;70.46
15260;BME280;34462;51.368;12.364;2023-04-01T12:25:19;20008.94;;;-141.84;69.25
15260;BME280;34462;51.368;12.364;2023-04-01T12:28:05;19976.44;;;-141.84;69.52
15260;BME280;34462;51.368;12.364;2023-04-01T12:30:53;19978.47;;;-141.84;70.50
15260;BME280;34462;51.368;12.364;2023-04-01T12:33:48;19992.69;;;-141.84;69.52
15260;BME280;34462;51.368;12.364;2023-04-01T12:36:43;20015.03;;;-141.84;67.61
15260;BME280;34462;51.368;12.364;2023-04-01T12:39:40;19974.41;;;-141.84;68.18
15260;BME280;34462;51.368;12.364;2023-04-01T12:42:32;19956.09;;;-141.84;67.90
15260;BME280;34462;51.368;12.364;2023-04-01T12:45:29;19931.72;;;-141.84;67.82
15260;BME280;34462;51.368;12.364;2023-04-01T12:51:49;20002.84;;;-141.84;66.53
15260;BME280;34462;51.368;12.364;2023-04-01T12:54:46;20019.13;;;-141.84;66.44
15260;BME280;34462;51.368;12.364;2023-04-01T12:57:57;19996.75;;;-141.84;66.58
15260;BME280;34462;51.368;12.364;2023-04-01T13:00:46;19994.72;;;-141.84;66.82
15260;BME280;34462;51.368;12.364;2023-04-01T13:03:41;19998.78;;;-141.84;66.19
15260;BME280;34462;51.368;12.364;2023-04-01T13:06:38;19988.63;;;-141.84;67.65
15260;BME280;34462;51.368;12.364;2023-04-01T13:09:26;19990.66;;;-141.84;65.98
15260;BME280;34462;51.368;12.364;2023-04-01T13:12:33;20015.03;;;-141.84;66.96
15260;BME280;34462;51.368;12.364;2023-04-01T13:15:27;20045.53;;;-141.84;65.38
15260;BME280;34462;51.368;12.364;2023-04-01T13:18:11;19988.63;;;-141.84;66.08
15260;BME280;34462;51.368;12.364;2023-04-01T13:20:50;19980.50;;;-141.84;67.21
15260;BME280;34462;51.368;12.364;2023-04-01T13:23:33;19968.31;;;-141.84;67.99
15260;BME280;34462;51.368;12.364;2023-04-01T13:26:13;19988.63;;;-141.84;67.75
15260;BME280;34462;51.368;12.364;2023-04-01T13:28:55;20000.81;;;-141.84;67.68
15260;BME280;34462;51.368;12.364;2023-04-01T13:31:59;19980.50;;;-141.84;66.33
15260;BME280;34462;51.368;12.364;2023-04-01T13:34:52;19974.41;;;-141.84;66.45
15260;BME280;34462;51.368;12.364;2023-04-01T13:37:39;20006.91;;;-141.84;65.16
15260;BME280;34462;51.368;12.364;2023-04-01T13:40:43;19970.34;;;-141.84;66.02
15260;BME280;34462;51.368;12.364;2023-04-01T13:43:36;19980.50;;;-141.84;67.31
15260;BME280;34462;51.368;12.364;2023-04-01T13:46:24;19931.72;;;-141.84;68.38
15260;BME280;34462;51.368;12.364;2023-04-01T13:49:22;19935.78;;;-141.84;68.88
15260;BME280;34462;51.368;12.364;2023-04-01T13:52:22;19889.03;;;-141.84;69.48
15260;BME280;34462;51.368;12.364;2023-04-01T13:55:22;19909.34;;;-141.84;70.51
15260;BME280;34462;51.368;12.364;2023-04-01T13:58:34;19907.31;;;-141.84;71.90
15260;BME280;34462;51.368;12.364;2023-04-01T14:01:15;19858.56;;;-141.84;72.83
15260;BME280;34462;51.368;12.364;2023-04-01T14:04:08;19915.47;;;-141.84;73.31
15260;BME280;34462;51.368;12.364;2023-04-01T14:06:58;19878.88;;;-141.84;73.67
15260;BME280;34462;51.368;12.364;2023-04-01T14:09:59;19864.66;;;-141.84;73.96
15260;BME280;34462;51.368;12.364;2023-04-01T14:12:42;19864.66;;;-141.84;73.36
15260;BME280;34462;51.368;12.364;2023-04-01T14:15:41;19854.50;;;-141.84;73.94
15260;BME280;34462;51.368;12.364;2023-04-01T14:18:43;19817.91;;;-141.84;74.28
15260;BME280;34462;51.368;12.364;2023-04-01T14:21:26;19854.50;;;-141.84;74.49
15260;BME280;34462;51.368;12.364;2023-04-01T14:24:18;19850.41;;;-141.84;74.84
15260;BME280;34462;51.368;12.364;2023-04-01T14:27:17;19868.72;;;-141.84;74.22
15260;BME280;34462;51.368;12.364;2023-04-01T14:30:20;19868.72;;;-141.84;73.73
15260;BME280;34462;51.368;12.364;2023-04-01T14:33:06;19848.38;;;-141.84;74.41
15260;BME280;34462;51.368;12.364;2023-04-01T14:35:49;19826.03;;;-141.84;74.65